Time;durP1;ratioP1;P1;durP2;ratioP2;P2;SDS_P1;SDS_P2;PMS_P1;PMS_P2;Temp;Humidity;BMP_temperature;BMP_pressure;BME280_temperature;BME280_humidity;BME280_pressure;Samples;Min_cycle;Max_cycle;Signal;HPM_P1;HPM_P2
2022/12/14 00:01:13;;;;;;;66.45;34.45;;;;;;;;;;5054340;28;20102;-73
2022/12/14 00:03:39;;;;;;;63.75;33.25;;;;;;;;;;5056431;28;20399;-73
2022/12/14 00:06:29;;;;;;;63.25;32.88;;;;;;;;;;5055234;28;20049;-73
2022/12/14 00:08:59;;;;;;;62.33;31.92;;;;;;;;;;5039496;28;20053;-73
2022/12/14 00:11:26;;;;;;;;;;;;;;;;;;5055181;28;20061;-73
2022/12/14 00:13:59;;;;;;;57.28;31.27;;;;;;;;;;5054334;28;19978;-73
2022/12/14 00:16:27;;;;;;;61.78;32.28;;;;;;;;;;5050525;28;20503;-73
2022/12/14 00:18:55;;;;;;;63.67;32.63;;;;;;;;;;5051820;28;20041;-73
2022/12/14 00:21:21;;;;;;;61.03;33.08;;;;;;;;;;5053467;28;20041;-73
2022/12/14 00:23:49;;;;;;;61.83;33.42;;;;;;;;;;5053420;28;20043;-73
2022/12/14 00:26:27;;;;;;;61.35;31.35;;;;;;;;;;5036187;28;20048;-73
2022/12/14 00:28:54;;;;;;;55.40;30.60;;;;;;;;;;5052105;28;20090;-73
2022/12/14 00:31:21;;;;;;;58.97;32.15;;;;;;;;;;5054264;28;20091;-73
2022/12/14 00:33:47;;;;;;;58.08;29.98;;;;;;;;;;5051586;28;20048;-72
2022/12/14 00:36:13;;;;;;;63.63;31.67;;;;;;;;;;5041279;28;20044;-73
2022/12/14 00:38:40;;;;;;;55.58;30.67;;;;;;;;;;5050475;28;20040;-73
2022/12/14 00:41:07;;;;;;;62.45;31.15;;;;;;;;;;5053204;28;20060;-73
2022/12/14 00:43:33;;;;;;;60.88;31.52;;;;;;;;;;5055392;28;20461;-73
2022/12/14 00:45:59;;;;;;;62.05;31.33;;;;;;;;;;5051804;28;20095;-73
2022/12/14 00:48:25;;;;;;;60.55;30.88;;;;;;;;;;5035441;28;20043;-73
2022/12/14 00:50:52;;;;;;;60.33;30.38;;;;;;;;;;5051892;28;20041;-73
2022/12/14 00:53:18;;;;;;;62.88;32.33;;;;;;;;;;5051220;28;20057;-72
2022/12/14 00:55:45;;;;;;;55.13;29.80;;;;;;;;;;5054376;28;20103;-73
2022/12/14 00:58:12;;;;;;;61.00;30.95;;;;;;;;;;5053078;28;20549;-74
2022/12/14 01:00:39;;;;;;;59.70;31.45;;;;;;;;;;5051154;28;20470;-73
2022/12/14 01:03:05;;;;;;;57.92;30.48;;;;;;;;;;5053991;28;20189;-73
2022/12/14 01:05:33;;;;;;;62.03;32.97;;;;;;;;;;5035136;28;20176;-73
2022/12/14 01:07:59;;;;;;;56.47;31.92;;;;;;;;;;5053040;28;20095;-73
2022/12/14 01:10:25;;;;;;;61.85;30.65;;;;;;;;;;5053370;28;20037;-73
2022/12/14 01:12:51;;;;;;;59.15;30.67;;;;;;;;;;5054200;28;20490;-73
2022/12/14 01:15:18;;;;;;;59.85;32.28;;;;;;;;;;5053801;28;20090;-73
2022/12/14 01:17:44;;;;;;;59.55;31.13;;;;;;;;;;5035131;28;20460;-73
2022/12/14 01:20:10;;;;;;;58.92;31.10;;;;;;;;;;5052629;28;20056;-72
2022/12/14 01:22:36;;;;;;;62.78;31.02;;;;;;;;;;5052440;28;20072;-73
2022/12/14 01:25:03;;;;;;;60.22;31.40;;;;;;;;;;5052082;28;20045;-73
2022/12/14 01:27:30;;;;;;;57.65;31.23;;;;;;;;;;5052528;28;20040;-73
2022/12/14 01:29:56;;;;;;;63.70;31.33;;;;;;;;;;5052953;28;20049;-73
2022/12/14 01:32:22;;;;;;;57.78;30.48;;;;;;;;;;5053081;28;20053;-73
2022/12/14 01:34:48;;;;;;;62.63;32.42;;;;;;;;;;5051972;28;20056;-73
2022/12/14 01:37:15;;;;;;;65.78;32.15;;;;;;;;;;5035690;28;20095;-74
2022/12/14 01:39:41;;;;;;;61.90;31.05;;;;;;;;;;5034068;28;20069;-73
2022/12/14 01:42:14;;;;;;;61.33;30.80;;;;;;;;;;5052632;28;20052;-74
2022/12/14 01:44:43;;;;;;;55.35;30.00;;;;;;;;;;5052588;28;20047;-74
2022/12/14 01:47:12;;;;;;;57.30;29.67;;;;;;;;;;5051093;28;20499;-74
2022/12/14 01:49:52;;;;;;;56.40;29.95;;;;;;;;;;5030149;28;20040;-74
2022/12/14 01:52:18;;;;;;;60.58;30.00;;;;;;;;;;5050344;28;20466;-73
2022/12/14 01:54:48;;;;;;;59.72;30.60;;;;;;;;;;5052056;28;20346;-74
2022/12/14 01:57:14;;;;;;;59.00;30.20;;;;;;;;;;5052089;28;20411;-73
2022/12/14 01:59:42;;;;;;;62.13;30.58;;;;;;;;;;5052183;28;20503;-74
2022/12/14 02:02:10;;;;;;;55.25;29.58;;;;;;;;;;5050780;28;20435;-74
2022/12/14 02:04:38;;;;;;;55.97;29.08;;;;;;;;;;5052202;28;20040;-73
2022/12/14 02:07:04;;;;;;;62.67;30.58;;;;;;;;;;5053228;28;20063;-73
2022/12/14 02:09:31;;;;;;;54.42;29.23;;;;;;;;;;5017841;28;20044;-74
2022/12/14 02:12:02;;;;;;;67.38;30.35;;;;;;;;;;5052357;28;20049;-73
2022/12/14 02:14:28;;;;;;;71.30;36.03;;;;;;;;;;5052613;28;20053;-74
2022/12/14 02:16:55;;;;;;;63.33;33.42;;;;;;;;;;5052971;28;20094;-73
2022/12/14 02:19:21;;;;;;;60.83;32.20;;;;;;;;;;5052071;28;20044;-72
2022/12/14 02:21:50;;;;;;;60.67;31.70;;;;;;;;;;5051615;28;20048;-73
2022/12/14 02:24:19;;;;;;;66.68;31.15;;;;;;;;;;5051191;28;20041;-73
2022/12/14 02:26:58;;;;;;;63.97;29.65;;;;;;;;;;5051089;28;20522;-73
2022/12/14 02:29:39;;;;;;;53.97;28.08;;;;;;;;;;5048550;28;20044;-73
2022/12/14 02:32:24;;;;;;;58.80;28.98;;;;;;;;;;5032394;28;20056;-73
2022/12/14 02:34:59;;;;;;;62.65;30.02;;;;;;;;;;5050766;28;20049;-72
2022/12/14 02:37:30;;;;;;;55.92;28.23;;;;;;;;;;5051358;28;20053;-73
2022/12/14 02:40:08;;;;;;;59.53;28.65;;;;;;;;;;5051857;28;20041;-73
2022/12/14 02:42:54;;;;;;;58.00;27.48;;;;;;;;;;5050070;28;20048;-73
2022/12/14 02:45:27;;;;;;;56.97;28.00;;;;;;;;;;4982972;28;20518;-72
2022/12/14 02:47:53;;;;;;;60.70;28.48;;;;;;;;;;5049086;28;20098;-72
2022/12/14 02:50:39;;;;;;;55.88;27.02;;;;;;;;;;5049626;28;20045;-73
2022/12/14 02:53:16;;;;;;;55.83;27.17;;;;;;;;;;5031696;28;20388;-73
2022/12/14 02:55:48;;;;;;;53.53;27.48;;;;;;;;;;5037437;28;20048;-72
2022/12/14 02:58:17;;;;;;;56.38;28.63;;;;;;;;;;5047536;28;20135;-72
2022/12/14 03:00:44;;;;;;;57.00;27.23;;;;;;;;;;5041128;28;20052;-73
2022/12/14 03:03:10;;;;;;;56.47;27.17;;;;;;;;;;5052187;28;20058;-73
2022/12/14 03:05:36;;;;;;;52.92;26.85;;;;;;;;;;5049428;28;20094;-72
2022/12/14 03:08:13;;;;;;;55.05;27.73;;;;;;;;;;5050843;28;20040;-72
2022/12/14 03:10:54;;;;;;;53.97;26.63;;;;;;;;;;5052126;28;20387;-72
2022/12/14 03:13:26;;;;;;;53.63;26.25;;;;;;;;;;5032768;28;20053;-72
2022/12/14 03:15:57;;;;;;;49.45;25.63;;;;;;;;;;5050491;28;20047;-73
2022/12/14 03:18:25;;;;;;;52.92;26.50;;;;;;;;;;5050296;28;20040;-73
2022/12/14 03:20:53;;;;;;;56.05;26.67;;;;;;;;;;5050727;28;20044;-73
2022/12/14 03:23:21;;;;;;;49.22;25.52;;;;;;;;;;5052370;28;20045;-72
2022/12/14 03:25:50;;;;;;;53.05;26.33;;;;;;;;;;5056471;28;20122;-73
2022/12/14 03:28:19;;;;;;;51.63;24.63;;;;;;;;;;5056146;28;20047;-72
2022/12/14 03:30:49;;;;;;;52.88;26.80;;;;;;;;;;5038459;28;20045;-73
2022/12/14 03:33:18;;;;;;;53.30;25.67;;;;;;;;;;5058289;28;20071;-72
2022/12/14 03:36:04;;;;;;;51.05;25.77;;;;;;;;;;5056327;28;20045;-73
2022/12/14 03:38:37;;;;;;;52.45;24.45;;;;;;;;;;5038270;28;20064;-73
2022/12/14 03:41:21;;;;;;;54.60;26.75;;;;;;;;;;5057236;28;20090;-72
2022/12/14 03:43:53;;;;;;;54.22;26.77;;;;;;;;;;5057922;28;20043;-73
2022/12/14 03:46:38;;;;;;;51.40;25.08;;;;;;;;;;5056264;28;20209;-72
2022/12/14 03:49:13;;;;;;;50.10;24.73;;;;;;;;;;5023672;28;20052;-73
2022/12/14 03:51:47;;;;;;;48.95;25.30;;;;;;;;;;5038158;28;20045;-73
2022/12/14 03:54:20;;;;;;;49.05;24.15;;;;;;;;;;5058326;28;20045;-73
2022/12/14 03:56:49;;;;;;;54.08;26.30;;;;;;;;;;5056570;28;20048;-73
2022/12/14 03:59:18;;;;;;;57.30;26.20;;;;;;;;;;5055624;28;20037;-73
2022/12/14 04:02:10;;;;;;;53.17;25.75;;;;;;;;;;5058745;28;20505;-73
2022/12/14 04:04:50;;;;;;;49.05;24.08;;;;;;;;;;5022632;28;20045;-73
2022/12/14 04:07:20;;;;;;;53.40;25.25;;;;;;;;;;5057929;28;20047;-73
2022/12/14 04:09:51;;;;;;;51.28;25.08;;;;;;;;;;5058313;28;20041;-73
2022/12/14 04:20:47;;;;;;;49.63;23.45;;;;;;;;;;5051936;28;20041;-72
2022/12/14 04:26:03;;;;;;;53.70;25.33;;;;;;;;;;5054557;28;20044;-73
2022/12/14 04:26:04;;;;;;;50.53;24.67;;;;;;;;;;5046228;28;20053;-73
2022/12/14 04:31:38;;;;;;;49.92;24.20;;;;;;;;;;5053934;28;20048;-73
2022/12/14 04:34:05;;;;;;;54.88;25.40;;;;;;;;;;5055741;28;20041;-74
2022/12/14 04:36:49;;;;;;;58.22;26.75;;;;;;;;;;5034811;28;20052;-73
2022/12/14 04:39:18;;;;;;;58.40;26.67;;;;;;;;;;5053791;28;20064;-74
2022/12/14 04:41:47;;;;;;;56.40;26.77;;;;;;;;;;5051536;28;20037;-73
2022/12/14 04:44:17;;;;;;;55.25;26.27;;;;;;;;;;5053494;28;20055;-73
2022/12/14 04:46:44;;;;;;;55.40;26.70;;;;;;;;;;5053125;28;20048;-73
2022/12/14 04:49:16;;;;;;;56.85;26.90;;;;;;;;;;5052401;28;20045;-74
2022/12/14 04:51:44;;;;;;;53.60;25.85;;;;;;;;;;5050867;28;20049;-74
2022/12/14 04:54:14;;;;;;;57.47;26.70;;;;;;;;;;5052094;28;20052;-73
2022/12/14 04:56:44;;;;;;;54.10;26.90;;;;;;;;;;5054191;28;20037;-74
2022/12/14 04:59:10;;;;;;;56.08;26.75;;;;;;;;;;5054883;28;20045;-74
2022/12/14 05:01:36;;;;;;;57.72;27.02;;;;;;;;;;5034636;28;20491;-73
2022/12/14 05:04:08;;;;;;;53.83;27.17;;;;;;;;;;5050197;28;20056;-74
2022/12/14 05:06:49;;;;;;;55.38;27.25;;;;;;;;;;5035191;28;20044;-74
2022/12/14 05:09:38;;;;;;;50.80;25.45;;;;;;;;;;5053065;28;20044;-73
2022/12/14 05:12:04;;;;;;;55.60;25.88;;;;;;;;;;5040878;28;20049;-73
2022/12/14 05:14:48;;;;;;;59.88;25.55;;;;;;;;;;5053298;28;20036;-73
2022/12/14 05:17:15;;;;;;;56.38;26.90;;;;;;;;;;5018778;28;20040;-74
2022/12/14 05:19:45;;;;;;;54.15;25.13;;;;;;;;;;5035908;28;20049;-72
2022/12/14 05:22:11;;;;;;;53.17;24.73;;;;;;;;;;5035092;28;20491;-73
2022/12/14 05:24:37;;;;;;;53.03;24.52;;;;;;;;;;5051653;28;20085;-72
2022/12/14 05:27:04;;;;;;;53.65;25.33;;;;;;;;;;5051531;28;20501;-72
2022/12/14 05:29:30;;;;;;;52.38;24.13;;;;;;;;;;5035131;28;20520;-72
2022/12/14 05:31:56;;;;;;;49.80;24.55;;;;;;;;;;5050265;28;20105;-73
2022/12/14 05:34:22;;;;;;;52.35;25.08;;;;;;;;;;5048609;28;20045;-71
2022/12/14 05:36:48;;;;;;;50.40;24.60;;;;;;;;;;5052381;28;20037;-72
2022/12/14 05:39:14;;;;;;;47.80;24.35;;;;;;;;;;5052542;28;20045;-73
2022/12/14 05:41:40;;;;;;;52.08;25.33;;;;;;;;;;5051241;28;20112;-73
2022/12/14 05:44:07;;;;;;;51.75;24.67;;;;;;;;;;5034269;28;20055;-72
2022/12/14 05:46:33;;;;;;;56.28;26.38;;;;;;;;;;5049674;28;20037;-73
2022/12/14 05:48:59;;;;;;;52.92;25.83;;;;;;;;;;5052010;28;20045;-73
2022/12/14 05:51:25;;;;;;;50.53;24.33;;;;;;;;;;5052075;28;20143;-73
2022/12/14 05:53:51;;;;;;;50.20;24.33;;;;;;;;;;5052540;28;20045;-71
2022/12/14 05:56:17;;;;;;;53.50;25.33;;;;;;;;;;5032259;28;20106;-73
2022/12/14 05:58:43;;;;;;;51.22;25.45;;;;;;;;;;5035083;28;20041;-73
2022/12/14 06:01:10;;;;;;;52.92;24.50;;;;;;;;;;5034043;28;20053;-72
2022/12/14 06:03:37;;;;;;;52.55;25.55;;;;;;;;;;5052700;28;20045;-73
2022/12/14 06:06:10;;;;;;;47.85;24.10;;;;;;;;;;5052005;28;20112;-72
2022/12/14 06:08:37;;;;;;;51.70;25.08;;;;;;;;;;5053823;28;20576;-73
2022/12/14 06:11:07;;;;;;;50.83;24.88;;;;;;;;;;5052041;28;20045;-72
2022/12/14 06:13:33;;;;;;;54.10;26.17;;;;;;;;;;5051590;28;20041;-72
2022/12/14 06:16:08;;;;;;;60.33;27.98;;;;;;;;;;5051176;28;20044;-73
2022/12/14 06:18:35;;;;;;;50.92;23.85;;;;;;;;;;5052805;28;20053;-73
2022/12/14 06:21:01;;;;;;;53.13;25.35;;;;;;;;;;5052155;28;20522;-73
2022/12/14 06:23:27;;;;;;;52.40;24.17;;;;;;;;;;5033098;28;20041;-73
2022/12/14 06:25:57;;;;;;;51.65;24.23;;;;;;;;;;5034327;28;20068;-73
2022/12/14 06:28:23;;;;;;;51.53;23.95;;;;;;;;;;5051796;28;20052;-73
2022/12/14 06:30:49;;;;;;;51.30;24.20;;;;;;;;;;5051550;28;20044;-73
2022/12/14 06:33:15;;;;;;;76.35;34.00;;;;;;;;;;5051783;28;20044;-73
2022/12/14 06:35:44;;;;;;;54.60;26.67;;;;;;;;;;5048864;28;20041;-73
2022/12/14 06:38:11;;;;;;;52.85;25.50;;;;;;;;;;5051383;28;20128;-73
2022/12/14 06:40:37;;;;;;;49.08;24.33;;;;;;;;;;5050181;28;20045;-73
2022/12/14 06:43:03;;;;;;;52.85;23.95;;;;;;;;;;5051995;28;20045;-73
2022/12/14 06:45:30;;;;;;;56.90;24.58;;;;;;;;;;5048247;28;20033;-73
2022/12/14 06:47:57;;;;;;;48.75;24.30;;;;;;;;;;5032459;28;20045;-73
2022/12/14 06:50:23;;;;;;;50.30;23.90;;;;;;;;;;5032212;28;20080;-73
2022/12/14 06:52:49;;;;;;;47.05;23.67;;;;;;;;;;5050598;28;20052;-72
2022/12/14 06:55:15;;;;;;;46.25;21.65;;;;;;;;;;5031279;28;21512;-73
2022/12/14 06:57:41;;;;;;;50.78;22.33;;;;;;;;;;5049435;28;20044;-73
2022/12/14 07:00:11;;;;;;;55.83;24.45;;;;;;;;;;5040209;28;20399;-73
2022/12/14 07:02:37;;;;;;;50.58;22.85;;;;;;;;;;5046654;28;20076;-73
2022/12/14 07:05:04;;;;;;;49.80;24.35;;;;;;;;;;5045457;28;20032;-73
2022/12/14 07:07:33;;;;;;;53.97;22.67;;;;;;;;;;5051458;28;20380;-73
2022/12/14 07:09:59;;;;;;;46.55;21.67;;;;;;;;;;5048687;28;20119;-74
2022/12/14 07:12:26;;;;;;;51.95;22.38;;;;;;;;;;5032881;28;20041;-73
2022/12/14 07:14:53;;;;;;;50.70;21.38;;;;;;;;;;5050792;28;20452;-73
2022/12/14 07:17:19;;;;;;;48.47;21.80;;;;;;;;;;5051522;28;20384;-74
2022/12/14 07:19:45;;;;;;;50.97;22.42;;;;;;;;;;5034419;28;20092;-74
2022/12/14 07:22:12;;;;;;;44.15;21.73;;;;;;;;;;5045449;28;20041;-73
2022/12/14 07:24:38;;;;;;;42.78;21.17;;;;;;;;;;5035033;28;20053;-73
2022/12/14 07:27:04;;;;;;;48.47;21.40;;;;;;;;;;5047238;28;20460;-73
2022/12/14 07:29:30;;;;;;;41.60;20.42;;;;;;;;;;5046363;28;20045;-73
2022/12/14 07:31:57;;;;;;;45.72;20.88;;;;;;;;;;5051365;28;20436;-73
2022/12/14 07:34:23;;;;;;;44.58;21.90;;;;;;;;;;5051848;28;20106;-73
2022/12/14 07:36:50;;;;;;;39.90;20.45;;;;;;;;;;5051403;28;20085;-73
2022/12/14 07:39:16;;;;;;;41.55;20.42;;;;;;;;;;5050582;28;20402;-73
2022/12/14 07:41:42;;;;;;;44.92;21.13;;;;;;;;;;5051000;28;20115;-73
2022/12/14 07:44:09;;;;;;;41.33;19.85;;;;;;;;;;5033170;28;20040;-73
2022/12/14 07:46:35;;;;;;;45.03;20.33;;;;;;;;;;5048884;28;20048;-73
2022/12/14 07:49:01;;;;;;;41.72;20.33;;;;;;;;;;5030319;28;20061;-73
2022/12/14 07:51:29;;;;;;;41.63;19.70;;;;;;;;;;5031534;28;20553;-73
2022/12/14 07:53:55;;;;;;;43.45;20.35;;;;;;;;;;5031585;28;20049;-73
2022/12/14 07:56:23;;;;;;;44.22;20.30;;;;;;;;;;5008544;28;20103;-74
2022/12/14 07:58:49;;;;;;;44.85;20.30;;;;;;;;;;5031506;28;20049;-73
2022/12/14 08:01:21;;;;;;;39.70;19.35;;;;;;;;;;5043408;28;20049;-73
2022/12/14 08:03:54;;;;;;;48.30;19.63;;;;;;;;;;5050411;28;20041;-73
2022/12/14 08:06:21;;;;;;;39.42;18.63;;;;;;;;;;5050849;28;20045;-73
2022/12/14 08:08:47;;;;;;;41.28;19.50;;;;;;;;;;5016484;28;20037;-73
2022/12/14 08:11:14;;;;;;;44.30;20.98;;;;;;;;;;5051000;28;20509;-73
2022/12/14 08:13:41;;;;;;;43.38;19.73;;;;;;;;;;5053611;28;20056;-73
2022/12/14 08:16:09;;;;;;;42.70;19.27;;;;;;;;;;5054256;28;20060;-73
2022/12/14 08:18:35;;;;;;;40.30;19.42;;;;;;;;;;5055061;28;20114;-74
2022/12/14 08:21:02;;;;;;;37.88;17.63;;;;;;;;;;5048923;28;20041;-66
2022/12/14 08:23:28;;;;;;;47.63;20.80;;;;;;;;;;5052049;28;20067;-73
2022/12/14 08:25:55;;;;;;;43.35;21.00;;;;;;;;;;5051861;28;20057;-72
2022/12/14 08:28:21;;;;;;;42.92;20.40;;;;;;;;;;5036147;28;20372;-73
2022/12/14 08:30:47;;;;;;;43.63;19.60;;;;;;;;;;5053640;28;20049;-72
2022/12/14 08:33:13;;;;;;;39.83;19.48;;;;;;;;;;5053577;28;20511;-72
2022/12/14 08:35:39;;;;;;;42.42;19.23;;;;;;;;;;5035862;28;20556;-72
2022/12/14 08:38:05;;;;;;;41.17;20.48;;;;;;;;;;5053739;28;20453;-72
2022/12/14 08:40:34;;;;;;;48.28;21.30;;;;;;;;;;5054834;28;20045;-73
2022/12/14 08:43:00;;;;;;;44.88;20.25;;;;;;;;;;5053391;28;20041;-72
2022/12/14 08:45:26;;;;;;;42.47;20.17;;;;;;;;;;5054814;28;20498;-73
2022/12/14 08:47:52;;;;;;;43.67;20.80;;;;;;;;;;5042766;28;20069;-73
2022/12/14 08:50:18;;;;;;;40.05;19.90;;;;;;;;;;5034979;28;20090;-72
2022/12/14 08:52:47;;;;;;;40.75;20.50;;;;;;;;;;5052590;28;20040;-72
2022/12/14 08:55:13;;;;;;;40.88;20.33;;;;;;;;;;5054006;28;20056;-73
2022/12/14 08:57:40;;;;;;;40.47;19.02;;;;;;;;;;5052345;28;20052;-73
2022/12/14 09:00:08;;;;;;;38.17;19.98;;;;;;;;;;5052542;28;20351;-73
2022/12/14 09:02:34;;;;;;;39.08;19.88;;;;;;;;;;5053378;28;20061;-73
2022/12/14 09:05:00;;;;;;;40.05;19.15;;;;;;;;;;5052371;28;20459;-72
2022/12/14 09:07:30;;;;;;;38.85;19.00;;;;;;;;;;5050299;28;20048;-73
2022/12/14 09:09:56;;;;;;;40.92;19.83;;;;;;;;;;5047705;28;20043;-72
2022/12/14 09:12:23;;;;;;;43.97;19.92;;;;;;;;;;5048843;28;20510;-73
2022/12/14 09:14:49;;;;;;;39.50;19.90;;;;;;;;;;5052567;28;20041;-72
2022/12/14 09:17:16;;;;;;;43.88;19.52;;;;;;;;;;5050177;28;20041;-72
2022/12/14 09:19:42;;;;;;;39.50;19.40;;;;;;;;;;5052935;28;20064;-73
2022/12/14 09:22:08;;;;;;;39.38;19.08;;;;;;;;;;5051222;28;20052;-73
2022/12/14 09:24:34;;;;;;;42.78;20.42;;;;;;;;;;5050663;28;20131;-74
2022/12/14 09:27:00;;;;;;;38.67;18.92;;;;;;;;;;5052501;28;20049;-73
2022/12/14 09:29:27;;;;;;;37.78;19.27;;;;;;;;;;5049746;28;20467;-75
2022/12/14 09:31:53;;;;;;;38.75;20.00;;;;;;;;;;5052957;28;20052;-73
2022/12/14 09:34:19;;;;;;;41.97;20.42;;;;;;;;;;5052133;28;20077;-73
2022/12/14 09:36:46;;;;;;;38.33;19.30;;;;;;;;;;5033337;28;20443;-73
2022/12/14 09:39:15;;;;;;;37.83;19.00;;;;;;;;;;5051413;28;20055;-73
2022/12/14 09:41:53;;;;;;;39.42;19.08;;;;;;;;;;5051193;28;20053;-72
2022/12/14 09:44:19;;;;;;;39.38;19.58;;;;;;;;;;5031514;28;20048;-73
2022/12/14 09:47:09;;;;;;;38.72;19.40;;;;;;;;;;5031018;28;20129;-72
2022/12/14 09:49:42;;;;;;;39.77;19.67;;;;;;;;;;5044033;28;20036;-73
2022/12/14 09:52:15;;;;;;;44.72;21.77;;;;;;;;;;5051356;28;20050;-73
2022/12/14 09:54:42;;;;;;;35.70;19.33;;;;;;;;;;5049790;28;20502;-72
2022/12/14 09:57:14;;;;;;;39.50;18.83;;;;;;;;;;5049674;28;20114;-73
2022/12/14 09:59:40;;;;;;;39.10;18.35;;;;;;;;;;5011881;28;20040;-73
2022/12/14 10:02:28;;;;;;;36.58;19.20;;;;;;;;;;5047364;28;20506;-72
2022/12/14 10:04:54;;;;;;;35.53;18.30;;;;;;;;;;5050369;28;20048;-73
2022/12/14 10:07:29;;;;;;;35.58;18.08;;;;;;;;;;5049701;28;20041;-73
2022/12/14 10:09:55;;;;;;;36.60;18.95;;;;;;;;;;5048573;28;20045;-74
2022/12/14 10:12:27;;;;;;;35.65;18.92;;;;;;;;;;5032001;28;20087;-73
2022/12/14 10:15:12;;;;;;;41.50;20.77;;;;;;;;;;5051198;28;20416;-73
2022/12/14 10:17:51;;;;;;;38.42;19.42;;;;;;;;;;5047201;28;20041;-73
2022/12/14 10:20:29;;;;;;;38.95;19.45;;;;;;;;;;5051191;28;20379;-73
2022/12/14 10:22:55;;;;;;;35.10;17.92;;;;;;;;;;5031838;28;20129;-74
2022/12/14 10:25:29;;;;;;;42.25;19.40;;;;;;;;;;5051428;28;20999;-73
2022/12/14 10:27:57;;;;;;;36.35;18.00;;;;;;;;;;5047546;28;20052;-73
2022/12/14 10:30:23;;;;;;;33.85;19.02;;;;;;;;;;5045831;28;20116;-73
2022/12/14 10:32:51;;;;;;;42.28;20.73;;;;;;;;;;5046328;28;20487;-73
2022/12/14 10:35:33;;;;;;;36.63;19.20;;;;;;;;;;5049716;28;20068;-73
2022/12/14 10:38:19;;;;;;;36.00;18.83;;;;;;;;;;5045162;28;20410;-73
2022/12/14 10:40:48;;;;;;;39.17;19.35;;;;;;;;;;5035521;28;20061;-73
2022/12/14 10:43:17;;;;;;;35.70;17.58;;;;;;;;;;5032803;28;20049;-73
2022/12/14 10:46:22;;;;;;;37.40;17.92;;;;;;;;;;5049211;28;20033;-73
2022/12/14 10:49:03;;;;;;;35.72;18.38;;;;;;;;;;4970665;28;20035;-73
2022/12/14 10:51:29;;;;;;;36.00;18.10;;;;;;;;;;4969317;28;20039;-73
2022/12/14 10:53:59;;;;;;;36.08;17.77;;;;;;;;;;4963718;28;20054;-73
2022/12/14 10:56:28;;;;;;;36.90;18.08;;;;;;;;;;4970167;28;20039;-73
2022/12/14 10:59:13;;;;;;;32.67;17.58;;;;;;;;;;4968963;28;20063;-73
2022/12/14 11:01:39;;;;;;;34.45;17.58;;;;;;;;;;4968326;28;20121;-72
2022/12/14 11:04:06;;;;;;;35.28;18.60;;;;;;;;;;4970345;28;20568;-72
2022/12/14 11:06:33;;;;;;;32.78;17.73;;;;;;;;;;4969148;28;20083;-73
2022/12/14 11:08:59;;;;;;;31.88;17.58;;;;;;;;;;4968869;28;20042;-73
2022/12/14 11:11:26;;;;;;;35.53;18.48;;;;;;;;;;4968349;28;20058;-73
2022/12/14 11:13:53;;;;;;;33.30;16.65;;;;;;;;;;4953101;28;20137;-73
2022/12/14 11:16:46;;;;;;;37.00;19.33;;;;;;;;;;4969545;28;20046;-73
2022/12/14 11:19:16;;;;;;;35.30;18.58;;;;;;;;;;4971824;28;20053;-73
2022/12/14 11:21:43;;;;;;;32.33;16.85;;;;;;;;;;5045204;28;20061;-72
2022/12/14 11:24:21;;;;;;;34.97;18.95;;;;;;;;;;5046280;28;20731;-73
2022/12/14 11:26:47;;;;;;;33.45;18.17;;;;;;;;;;5031132;28;20080;-73
2022/12/14 11:29:17;;;;;;;32.13;17.90;;;;;;;;;;5051921;28;20041;-72
2022/12/14 11:31:47;;;;;;;32.90;18.25;;;;;;;;;;5050310;28;20037;-72
2022/12/14 11:34:29;;;;;;;33.22;17.98;;;;;;;;;;5048285;28;20509;-72
2022/12/14 11:36:55;;;;;;;30.77;17.10;;;;;;;;;;5052044;28;20133;-72
2022/12/14 11:39:22;;;;;;;35.05;18.02;;;;;;;;;;5051384;28;20441;-72
2022/12/14 11:42:00;;;;;;;31.58;17.58;;;;;;;;;;5048123;28;20462;-72
2022/12/14 11:44:28;;;;;;;33.65;18.17;;;;;;;;;;5053033;28;20099;-72
2022/12/14 11:46:57;;;;;;;34.47;18.58;;;;;;;;;;5055959;28;20106;-72
2022/12/14 11:49:23;;;;;;;34.03;18.63;;;;;;;;;;5036188;28;20133;-71
2022/12/14 11:51:55;;;;;;;33.58;18.55;;;;;;;;;;5054069;28;20052;-72
2022/12/14 11:54:21;;;;;;;35.97;17.58;;;;;;;;;;5055587;28;20056;-72
2022/12/14 11:56:49;;;;;;;31.80;17.40;;;;;;;;;;5055581;28;20072;-71
2022/12/14 11:59:16;;;;;;;32.38;17.45;;;;;;;;;;5054775;28;20124;-72
2022/12/14 12:01:42;;;;;;;32.45;17.98;;;;;;;;;;5054578;28;20053;-71
2022/12/14 12:04:11;;;;;;;29.40;16.65;;;;;;;;;;5047395;28;20045;-72
2022/12/14 12:06:39;;;;;;;31.08;17.48;;;;;;;;;;5051071;28;20577;-71
2022/12/14 12:09:23;;;;;;;30.67;17.67;;;;;;;;;;5054459;28;20095;-73
2022/12/14 12:11:49;;;;;;;29.75;16.73;;;;;;;;;;5049330;28;20045;-72
2022/12/14 12:14:18;;;;;;;26.33;14.00;;;;;;;;;;5042460;28;20393;-72
2022/12/14 12:16:44;;;;;;;22.83;13.77;;;;;;;;;;5047982;28;20044;-72
2022/12/14 12:19:14;;;;;;;24.23;14.07;;;;;;;;;;5050882;28;20181;-72
2022/12/14 12:21:41;;;;;;;30.20;16.70;;;;;;;;;;5054799;28;20095;-72
2022/12/14 12:24:15;;;;;;;34.90;19.20;;;;;;;;;;5038970;28;20130;-72
2022/12/14 12:26:47;;;;;;;33.72;17.42;;;;;;;;;;5035349;28;20049;-73
2022/12/14 12:29:32;;;;;;;33.72;19.42;;;;;;;;;;5048588;28;20048;-72
2022/12/14 12:32:05;;;;;;;32.42;18.92;;;;;;;;;;5054883;28;20087;-72
2022/12/14 12:34:44;;;;;;;32.17;18.77;;;;;;;;;;5054033;28;20048;-72
2022/12/14 12:37:15;;;;;;;33.95;18.75;;;;;;;;;;5054155;28;20163;-72
2022/12/14 12:39:44;;;;;;;35.63;19.75;;;;;;;;;;5041812;28;20040;-72
2022/12/14 12:42:17;;;;;;;30.85;18.45;;;;;;;;;;5054796;28;20049;-72
2022/12/14 12:45:02;;;;;;;31.05;18.08;;;;;;;;;;5054698;28;20113;-73
2022/12/14 12:47:33;;;;;;;32.50;19.02;;;;;;;;;;5037000;28;20072;-72
2022/12/14 12:50:01;;;;;;;33.70;18.45;;;;;;;;;;5034323;28;20388;-72
2022/12/14 12:52:49;;;;;;;34.78;18.15;;;;;;;;;;5036592;28;20520;-73
2022/12/14 12:55:17;;;;;;;32.55;18.42;;;;;;;;;;5051347;28;20609;-72
2022/12/14 12:57:45;;;;;;;33.53;17.88;;;;;;;;;;5054184;28;20120;-72
2022/12/14 13:00:19;;;;;;;35.65;20.13;;;;;;;;;;5048042;28;20403;-73
2022/12/14 13:02:47;;;;;;;32.17;17.88;;;;;;;;;;5053578;28;20522;-73
2022/12/14 13:05:15;;;;;;;31.60;17.45;;;;;;;;;;5051447;28;20044;-72
2022/12/14 13:07:42;;;;;;;27.92;16.65;;;;;;;;;;5035177;28;20479;-73
2022/12/14 13:10:11;;;;;;;36.88;17.25;;;;;;;;;;5053410;28;20050;-72
2022/12/14 13:13:04;;;;;;;31.10;18.23;;;;;;;;;;5053250;28;20045;-72
2022/12/14 13:15:32;;;;;;;32.55;19.48;;;;;;;;;;5018099;28;20102;-72
2022/12/14 13:18:21;;;;;;;31.85;18.50;;;;;;;;;;5050068;28;20068;-73
2022/12/14 13:20:47;;;;;;;30.75;17.52;;;;;;;;;;5047573;28;20559;-74
2022/12/14 13:23:13;;;;;;;32.22;16.85;;;;;;;;;;5053319;28;20056;-76
2022/12/14 13:25:55;;;;;;;31.83;17.42;;;;;;;;;;5050403;28;20106;-76
2022/12/14 13:28:30;;;;;;;33.38;17.55;;;;;;;;;;5053318;28;20049;-75
2022/12/14 13:31:02;;;;;;;35.58;18.83;;;;;;;;;;5052061;28;20543;-75
2022/12/14 13:33:32;;;;;;;33.58;19.55;;;;;;;;;;5053652;28;20057;-79
2022/12/14 13:36:17;;;;;;;30.65;18.40;;;;;;;;;;5054572;28;20052;-75
2022/12/14 13:39:06;;;;;;;34.25;17.38;;;;;;;;;;5033672;28;20045;-77
2022/12/14 13:41:34;;;;;;;31.65;18.05;;;;;;;;;;5053395;28;20056;-76
2022/12/14 13:44:20;;;;;;;30.30;17.42;;;;;;;;;;5033873;28;20041;-76
2022/12/14 13:46:56;;;;;;;29.80;17.67;;;;;;;;;;5052161;28;20486;-72
2022/12/14 13:49:22;;;;;;;30.42;17.55;;;;;;;;;;5052362;28;20064;-72
2022/12/14 13:51:49;;;;;;;33.55;17.58;;;;;;;;;;5033696;28;20042;-73
2022/12/14 13:54:33;;;;;;;30.15;17.67;;;;;;;;;;5033989;28;20085;-72
2022/12/14 13:57:04;;;;;;;32.75;18.67;;;;;;;;;;5050563;28;20048;-73
2022/12/14 13:59:31;;;;;;;35.00;20.27;;;;;;;;;;5027550;28;20107;-73
2022/12/14 14:01:59;;;;;;;33.38;20.20;;;;;;;;;;5052585;28;20048;-73
2022/12/14 14:04:27;;;;;;;39.13;22.80;;;;;;;;;;5048759;28;20044;-72
2022/12/14 14:06:54;;;;;;;37.58;20.80;;;;;;;;;;5043101;28;20049;-72
2022/12/14 14:09:23;;;;;;;33.85;20.25;;;;;;;;;;5052875;28;20046;-73
2022/12/14 14:11:57;;;;;;;30.77;19.35;;;;;;;;;;5042437;28;20052;-73
2022/12/14 14:14:42;;;;;;;32.60;19.33;;;;;;;;;;5018157;28;20048;-73
2022/12/14 14:17:24;;;;;;;31.52;18.67;;;;;;;;;;5050392;28;20432;-73
2022/12/14 14:19:52;;;;;;;31.08;18.02;;;;;;;;;;5050586;28;20055;-72
2022/12/14 14:22:21;;;;;;;31.63;18.48;;;;;;;;;;5047238;28;20042;-72
2022/12/14 14:25:10;;;;;;;29.88;16.98;;;;;;;;;;5020195;28;20052;-73
2022/12/14 14:27:37;;;;;;;31.00;18.00;;;;;;;;;;5034357;28;20507;-72
2022/12/14 14:30:20;;;;;;;30.20;17.95;;;;;;;;;;5032909;28;20061;-73
2022/12/14 14:32:46;;;;;;;31.85;17.52;;;;;;;;;;5046868;28;20055;-72
2022/12/14 14:35:22;;;;;;;29.98;17.42;;;;;;;;;;5052107;28;20528;-72
2022/12/14 14:38:17;;;;;;;30.75;17.52;;;;;;;;;;5051605;28;20099;-72
2022/12/14 14:40:47;;;;;;;33.13;17.60;;;;;;;;;;5037370;28;20068;-72
2022/12/14 14:43:27;;;;;;;32.65;17.98;;;;;;;;;;5047306;28;20053;-72
2022/12/14 14:45:56;;;;;;;29.42;17.15;;;;;;;;;;5048674;28;20075;-72
2022/12/14 14:48:27;;;;;;;31.98;17.77;;;;;;;;;;5028742;28;20045;-72